createdAt,value
2019-02-24T00:01:54.594Z,12.30
2019-02-24T00:04:44.692Z,13.20
2019-02-24T00:08:11.075Z,12.07
2019-02-24T00:10:29.861Z,11.73
2019-02-24T00:13:02.621Z,11.93
2019-02-24T00:15:44.598Z,11.93
2019-02-24T00:18:56.149Z,11.53
2019-02-24T00:21:31.247Z,11.73
2019-02-24T00:24:13.153Z,12.67
2019-02-24T00:27:11.861Z,13.00
2019-02-24T00:29:56.135Z,11.90
2019-02-24T00:32:31.525Z,12.43
2019-02-24T00:35:06.397Z,11.73
2019-02-24T00:37:42.794Z,12.37
2019-02-24T00:40:18.857Z,11.80
2019-02-24T00:43:02.096Z,11.20
2019-02-24T00:45:38.296Z,11.17
2019-02-24T00:48:26.978Z,11.23
2019-02-24T00:50:58.715Z,11.37
2019-02-24T00:53:42.269Z,11.33
2019-02-24T00:56:11.167Z,11.53
2019-02-24T00:58:57.214Z,11.73
2019-02-24T01:01:54.106Z,12.37
2019-02-24T01:04:31.417Z,12.17
2019-02-24T01:07:06.438Z,12.63
2019-02-24T01:09:41.681Z,11.30
2019-02-24T01:12:16.714Z,12.20
2019-02-24T01:14:49.634Z,11.53
2019-02-24T01:17:30.447Z,12.10
2019-02-24T01:20:14.429Z,12.17
2019-02-24T01:22:53.617Z,12.50
2019-02-24T01:25:43.938Z,12.83
2019-02-24T01:28:25.665Z,13.07
2019-02-24T01:31:17.061Z,13.20
2019-02-24T01:33:52.655Z,12.77
2019-02-24T01:36:25.566Z,13.73
2019-02-24T01:38:57.964Z,13.10
2019-02-24T01:41:32.606Z,13.63
2019-02-24T01:44:08.063Z,14.50
2019-02-24T01:46:45.034Z,13.27
2019-02-24T01:49:20.436Z,13.53
2019-02-24T01:52:15.684Z,13.37
2019-02-24T01:54:47.992Z,13.97
2019-02-24T01:57:25.533Z,13.23
2019-02-24T01:59:55.548Z,14.27
2019-02-24T02:02:27.675Z,13.57
2019-02-24T02:04:59.677Z,13.53
2019-02-24T02:07:39.107Z,12.80
2019-02-24T02:10:21.927Z,14.03
2019-02-24T02:13:01.447Z,13.40
2019-02-24T02:15:37.212Z,13.83
2019-02-24T02:18:08.165Z,13.63
2019-02-24T02:20:46.366Z,13.73
2019-02-24T02:23:21.482Z,12.77
2019-02-24T02:25:53.417Z,13.73
2019-02-24T02:28:30.416Z,13.60
2019-02-24T02:31:08.646Z,13.10
2019-02-24T02:33:43.326Z,13.23
2019-02-24T02:36:18.233Z,13.33
2019-02-24T02:38:55.175Z,13.27
2019-02-24T02:41:27.842Z,13.37
2019-02-24T02:44:02.301Z,12.87
2019-02-24T02:46:43.652Z,12.90
2019-02-24T02:49:15.442Z,13.23
2019-02-24T02:51:55.574Z,14.33
2019-02-24T02:54:41.265Z,13.83
2019-02-24T02:57:18.263Z,14.40
2019-02-24T02:59:53.995Z,12.87
2019-02-24T03:02:30.703Z,13.20
2019-02-24T03:05:03.429Z,14.10
2019-02-24T03:07:51.462Z,13.43
2019-02-24T03:10:28.056Z,14.70
2019-02-24T03:12:56.187Z,13.33
2019-02-24T03:15:26.714Z,13.67
2019-02-24T03:17:57.281Z,14.30
2019-02-24T03:20:28.237Z,14.60
2019-02-24T03:23:10.477Z,13.83
2019-02-24T03:25:45.664Z,14.57
2019-02-24T03:28:22.633Z,13.40
2019-02-24T03:31:01.863Z,14.53
2019-02-24T03:33:32.676Z,14.40
2019-02-24T03:36:21.587Z,15.13
2019-02-24T03:38:55.025Z,14.23
2019-02-24T03:41:28.471Z,15.20
2019-02-24T03:44:15.486Z,15.80
2019-02-24T03:46:48.285Z,14.97
2019-02-24T03:49:21.409Z,15.83
2019-02-24T03:52:08.075Z,16.20
2019-02-24T03:54:41.729Z,14.97
2019-02-24T03:57:12.303Z,15.60
2019-02-24T03:59:48.201Z,16.20
2019-02-24T04:02:18.815Z,15.23
2019-02-24T04:04:49.334Z,16.23
2019-02-24T04:07:39.125Z,16.33
2019-02-24T04:10:17.269Z,15.03
2019-02-24T04:13:55.076Z,15.77
2019-02-24T04:15:26.659Z,15.37
2019-02-24T04:17:57.299Z,15.53
2019-02-24T04:20:27.939Z,16.40
2019-02-24T04:23:08.580Z,16.97
2019-02-24T04:25:39.105Z,16.67
2019-02-24T04:28:09.955Z,17.67
2019-02-24T04:30:42.597Z,17.90
2019-02-24T04:33:18.091Z,17.03
2019-02-24T04:35:48.925Z,15.60
2019-02-24T04:38:20.000Z,16.63
2019-02-24T04:40:56.480Z,17.47
2019-02-24T04:43:31.349Z,18.07
2019-02-24T04:46:06.080Z,16.43
2019-02-24T04:48:36.597Z,17.33
2019-02-24T04:51:07.069Z,18.23
2019-02-24T04:53:37.749Z,18.40
2019-02-24T04:56:10.314Z,18.30
2019-02-24T04:58:40.940Z,18.23
2019-02-24T05:01:29.631Z,18.03
2019-02-24T05:04:01.952Z,18.53
2019-02-24T05:06:38.556Z,19.50
2019-02-24T05:09:09.013Z,19.70
2019-02-24T05:11:39.646Z,19.50
2019-02-24T05:14:10.272Z,18.27
2019-02-24T05:16:49.711Z,18.63
2019-02-24T05:19:18.700Z,19.50
2019-02-24T05:21:52.349Z,19.73
2019-02-24T05:24:23.064Z,20.33
2019-02-24T05:26:58.039Z,20.47
2019-02-24T05:29:30.811Z,20.53
2019-02-24T05:32:05.239Z,19.30
2019-02-24T05:34:37.465Z,21.87
2019-02-24T05:37:12.758Z,19.63
2019-02-24T05:40:11.179Z,19.17
2019-02-24T05:42:51.046Z,20.27
2019-02-24T05:45:22.912Z,20.40
2019-02-24T05:48:04.690Z,21.53
2019-02-24T05:50:36.666Z,20.87
2019-02-24T05:53:08.623Z,21.33
2019-02-24T05:55:57.552Z,21.17
2019-02-24T05:58:26.490Z,22.63
2019-02-24T06:00:58.843Z,23.80
2019-02-24T06:03:34.925Z,21.03
2019-02-24T06:06:13.121Z,23.23
2019-02-24T06:08:43.301Z,20.33
2019-02-24T06:11:15.753Z,21.23
2019-02-24T06:14:05.256Z,20.63
2019-02-24T06:16:45.291Z,23.27
2019-02-24T06:19:21.605Z,23.97
2019-02-24T06:21:56.736Z,23.87
2019-02-24T06:24:30.738Z,25.07
2019-02-24T06:27:02.831Z,22.40
2019-02-24T06:29:40.322Z,23.57
2019-02-24T06:32:10.409Z,23.07
2019-02-24T06:34:41.177Z,24.03
2019-02-24T06:37:16.374Z,23.87
2019-02-24T06:39:51.983Z,23.40
2019-02-24T06:42:37.871Z,24.70
2019-02-24T06:45:27.543Z,23.67
2019-02-24T06:47:58.393Z,25.17
2019-02-24T06:50:58.539Z,23.87
2019-02-24T06:53:31.492Z,24.63
2019-02-24T06:56:02.028Z,25.13
2019-02-24T06:58:38.395Z,25.03
2019-02-24T07:01:12.610Z,25.20
2019-02-24T07:03:47.605Z,23.90
2019-02-24T07:06:21.375Z,24.67
2019-02-24T07:08:53.620Z,24.70
2019-02-24T07:11:43.100Z,26.90
2019-02-24T07:14:47.196Z,24.57
2019-02-24T07:18:02.393Z,23.50
2019-02-24T07:20:52.190Z,25.80
2019-02-24T07:23:44.012Z,24.87
2019-02-24T07:27:31.313Z,23.37
2019-02-24T07:30:42.118Z,23.67
2019-02-24T07:33:34.094Z,25.33
2019-02-24T07:36:29.499Z,25.13
2019-02-24T07:39:13.961Z,24.50
2019-02-24T07:42:19.910Z,24.47
2019-02-24T07:45:41.479Z,24.37
2019-02-24T07:48:45.093Z,24.60
2019-02-24T07:51:30.164Z,24.93
2019-02-24T07:54:23.401Z,25.40
2019-02-24T07:57:13.996Z,24.57
2019-02-24T08:00:15.630Z,22.97
2019-02-24T08:03:01.144Z,22.97
2019-02-24T08:05:44.354Z,23.60
2019-02-24T08:08:21.571Z,22.83
2019-02-24T08:11:22.493Z,22.70
2019-02-24T08:14:16.644Z,23.87
2019-02-24T08:16:58.398Z,24.67
2019-02-24T08:19:46.196Z,23.53
2019-02-24T08:22:21.473Z,24.00
2019-02-24T08:25:17.551Z,25.07
2019-02-24T08:27:46.482Z,23.13
2019-02-24T08:30:41.666Z,23.30
2019-02-24T08:33:13.079Z,24.27
2019-02-24T08:35:44.653Z,21.87
2019-02-24T08:38:20.326Z,23.27
2019-02-24T08:41:03.634Z,24.03
2019-02-24T08:43:49.638Z,23.87
2019-02-24T08:46:27.487Z,23.13
2019-02-24T08:49:08.257Z,21.77
2019-02-24T08:51:47.790Z,22.67
2019-02-24T08:54:36.005Z,22.40
2019-02-24T08:57:15.756Z,22.27
2019-02-24T08:59:57.772Z,21.43
2019-02-24T09:02:31.118Z,22.07
2019-02-24T09:06:02.193Z,21.50
2019-02-24T09:08:16.368Z,20.40
2019-02-24T09:10:49.155Z,20.37
2019-02-24T09:13:25.988Z,19.87
2019-02-24T09:16:11.240Z,19.33
2019-02-24T09:18:40.178Z,19.13
2019-02-24T09:21:12.881Z,19.47
2019-02-24T09:24:00.320Z,17.53
2019-02-24T09:27:10.324Z,18.97
2019-02-24T09:29:49.223Z,18.90
2019-02-24T09:35:42.632Z,17.87
2019-02-24T09:36:10.651Z,18.63
2019-02-24T09:38:54.668Z,18.27
2019-02-24T09:41:37.531Z,17.33
2019-02-24T09:44:24.465Z,18.77
2019-02-24T09:47:03.569Z,17.90
2019-02-24T09:53:01.819Z,17.57
2019-02-24T09:55:52.695Z,17.17
2019-02-24T10:01:10.551Z,18.77
2019-02-24T10:10:12.649Z,15.97
2019-02-24T10:12:32.021Z,15.60
2019-02-24T10:15:07.916Z,16.27
2019-02-24T10:17:58.222Z,17.97
2019-02-24T10:21:09.651Z,15.93
2019-02-24T10:23:54.622Z,15.87
2019-02-24T10:27:18.161Z,16.50
2019-02-24T10:29:35.761Z,15.57
2019-02-24T10:32:15.582Z,15.23
2019-02-24T10:36:02.900Z,15.90
2019-02-24T10:38:29.642Z,13.47
2019-02-24T10:41:39.431Z,14.70
2019-02-24T10:44:40.576Z,15.07
2019-02-24T10:47:29.125Z,14.03
2019-02-24T10:50:05.132Z,13.35
2019-02-24T10:53:10.106Z,14.03
2019-02-24T10:56:28.234Z,12.73
2019-02-24T11:02:33.327Z,13.13
2019-02-24T11:05:22.192Z,12.47
2019-02-24T11:08:06.031Z,11.80
2019-02-24T11:10:48.759Z,12.43
2019-02-24T11:13:45.689Z,11.88
2019-02-24T11:16:32.151Z,11.53
2019-02-24T11:19:45.649Z,11.83
2019-02-24T11:25:45.811Z,11.12
2019-02-24T11:29:49.461Z,11.08
2019-02-24T11:32:12.216Z,11.28
2019-02-24T11:35:10.091Z,10.88
2019-02-24T11:37:56.794Z,11.03
2019-02-24T11:40:19.503Z,11.12
2019-02-24T11:43:26.145Z,10.75
2019-02-24T11:45:57.763Z,10.05
2019-02-24T11:48:31.745Z,10.58
2019-02-24T11:51:26.365Z,10.45
2019-02-24T11:53:58.038Z,9.70
2019-02-24T11:56:33.104Z,9.38
2019-02-24T11:59:03.553Z,9.65
2019-02-24T12:01:47.412Z,8.88
2019-02-24T12:04:11.381Z,9.43
2019-02-24T12:06:41.782Z,8.90
2019-02-24T12:09:13.176Z,9.60
2019-02-24T12:11:44.082Z,9.60
2019-02-24T12:14:14.567Z,8.73
2019-02-24T12:16:47.123Z,9.53
2019-02-24T12:19:17.654Z,9.13
2019-02-24T12:21:57.431Z,9.00
2019-02-24T12:24:29.593Z,8.78
2019-02-24T12:27:09.831Z,8.08
2019-02-24T12:29:52.818Z,9.50
2019-02-24T12:32:23.414Z,8.15
2019-02-24T12:34:56.549Z,8.15
2019-02-24T12:37:47.906Z,8.23
2019-02-24T12:40:18.348Z,8.48
2019-02-24T12:42:49.262Z,7.90
2019-02-24T12:45:21.519Z,8.45
2019-02-24T12:47:52.079Z,7.75
2019-02-24T12:50:24.118Z,7.42
2019-02-24T12:52:55.880Z,7.45
2019-02-24T12:55:29.370Z,7.90
2019-02-24T12:58:23.101Z,7.67
2019-02-24T13:01:00.651Z,8.05
2019-02-24T13:03:59.151Z,6.95
2019-02-24T13:06:45.665Z,6.85
2019-02-24T13:09:47.394Z,7.33
2019-02-24T13:12:24.971Z,6.83
2019-02-24T13:15:37.894Z,6.33
2019-02-24T13:18:40.054Z,6.80
2019-02-24T13:21:14.346Z,7.22
2019-02-24T13:24:07.307Z,6.80
2019-02-24T13:26:58.308Z,6.78
2019-02-24T13:30:02.300Z,6.40
2019-02-24T13:32:55.673Z,5.72
2019-02-24T13:35:28.647Z,5.92
2019-02-24T13:38:08.182Z,6.17
2019-02-24T13:41:09.377Z,5.60
2019-02-24T13:43:44.333Z,5.92
2019-02-24T13:46:40.200Z,6.80
2019-02-24T13:49:13.905Z,6.97
2019-02-24T13:51:53.672Z,6.75
2019-02-24T13:54:35.065Z,6.40
2019-02-24T13:59:56.060Z,6.00
2019-02-24T14:02:51.220Z,5.50
2019-02-24T14:05:35.991Z,5.12
2019-02-24T14:08:22.950Z,4.83
2019-02-24T14:11:15.994Z,5.45
2019-02-24T14:14:00.197Z,5.17
2019-02-24T14:16:55.356Z,5.45
2019-02-24T14:19:46.352Z,5.10
2019-02-24T14:22:30.273Z,5.37
2019-02-24T14:25:07.138Z,5.75
2019-02-24T14:27:45.288Z,5.45
2019-02-24T14:30:34.885Z,5.28
2019-02-24T14:33:12.461Z,5.30
2019-02-24T14:35:55.172Z,4.83
2019-02-24T14:38:45.152Z,4.97
2019-02-24T14:41:27.306Z,4.70
2019-02-24T14:44:02.416Z,4.83
2019-02-24T14:46:36.114Z,4.97
2019-02-24T14:49:23.642Z,4.53
2019-02-24T14:52:13.191Z,5.37
2019-02-24T14:54:47.310Z,5.05
2019-02-24T14:57:21.080Z,5.08
2019-02-24T15:00:25.451Z,5.58
2019-02-24T15:03:03.521Z,5.45
2019-02-24T15:05:46.979Z,5.17
2019-02-24T15:08:22.483Z,5.85
2019-02-24T15:10:57.069Z,5.50
2019-02-24T15:14:02.712Z,5.37
2019-02-24T15:16:36.170Z,5.20
2019-02-24T15:19:26.085Z,5.00
2019-02-24T15:22:19.492Z,5.60
2019-02-24T15:25:03.913Z,5.37
2019-02-24T15:27:42.082Z,5.23
2019-02-24T15:31:33.063Z,5.73
2019-02-24T15:33:28.822Z,5.90
2019-02-24T15:36:34.542Z,5.50
2019-02-24T15:39:23.741Z,5.93
2019-02-24T15:41:59.907Z,5.27
2019-02-24T15:44:41.920Z,5.60
2019-02-24T15:47:17.189Z,5.63
2019-02-24T15:49:52.899Z,6.10
2019-02-24T15:52:26.554Z,5.13
2019-02-24T15:55:06.089Z,5.17
2019-02-24T15:57:45.149Z,5.43
2019-02-24T16:00:42.460Z,5.27
2019-02-24T16:03:30.148Z,5.60
2019-02-24T16:06:05.702Z,5.30
2019-02-24T16:09:28.854Z,5.40
2019-02-24T16:14:56.720Z,5.63
2019-02-24T16:17:40.555Z,5.60
2019-02-24T16:20:26.011Z,5.67
2019-02-24T16:23:19.464Z,5.37
2019-02-24T16:25:52.771Z,5.03
2019-02-24T16:28:27.753Z,6.67
2019-02-24T16:33:59.069Z,10.10
2019-02-24T16:36:34.520Z,7.47
2019-02-24T16:43:41.064Z,6.20
2019-02-24T16:46:52.163Z,6.10
2019-02-24T16:49:23.991Z,6.40
2019-02-24T16:51:59.263Z,6.50
2019-02-24T16:55:50.451Z,5.97
2019-02-24T16:58:50.458Z,5.23
2019-02-24T17:01:42.985Z,6.20
2019-02-24T17:04:20.946Z,6.07
2019-02-24T17:26:20.931Z,8.27
2019-02-24T17:29:02.248Z,6.10
2019-02-24T17:31:58.418Z,7.47
2019-02-24T17:34:39.575Z,5.73
2019-02-24T17:37:42.347Z,6.20
2019-02-24T17:41:03.500Z,5.13
2019-02-24T17:47:44.696Z,6.03
2019-02-24T17:50:19.535Z,5.90
2019-02-24T17:58:05.890Z,5.90
2019-02-24T17:59:59.729Z,5.37
2019-02-24T18:06:00.463Z,5.27
2019-02-24T18:09:52.919Z,4.77
2019-02-24T18:33:51.061Z,4.80
2019-02-24T18:36:12.076Z,4.73
2019-02-24T18:46:51.811Z,4.50
2019-02-24T19:03:33.918Z,4.30
2019-02-24T19:07:01.367Z,4.37
2019-02-24T19:09:49.338Z,4.37
2019-02-24T19:21:53.845Z,3.87
2019-02-24T19:24:28.241Z,4.03
2019-02-24T20:01:35.982Z,5.50
2019-02-24T20:04:17.371Z,4.70
2019-02-24T20:07:01.217Z,4.57
2019-02-24T20:10:50.745Z,4.00
2019-02-24T20:17:12.680Z,4.13
2019-02-24T20:20:09.185Z,4.03
2019-02-24T20:26:38.005Z,4.63
2019-02-24T20:29:46.851Z,4.57
2019-02-24T20:32:40.414Z,4.70
2019-02-24T20:35:58.188Z,4.70
2019-02-24T20:44:09.762Z,4.93
2019-02-24T21:28:21.273Z,3.97
2019-02-24T21:30:50.616Z,4.10
2019-02-24T21:33:29.547Z,4.00
2019-02-24T21:39:29.456Z,3.87
2019-02-24T22:13:03.303Z,3.70
2019-02-24T22:15:40.156Z,3.87
2019-02-24T22:18:18.186Z,3.80
2019-02-24T22:20:54.858Z,4.40
2019-02-24T22:26:56.577Z,4.13
2019-02-24T22:35:20.652Z,3.80
2019-02-24T22:37:54.056Z,3.67
2019-02-24T22:50:21.897Z,3.30
2019-02-24T22:56:22.603Z,3.53
2019-02-24T23:05:16.504Z,3.33
2019-02-24T23:14:07.530Z,3.37
2019-02-24T23:16:44.524Z,3.80
2019-02-24T23:25:14.164Z,3.27
2019-02-24T23:43:47.756Z,3.07
2019-02-24T23:50:25.988Z,3.33
2019-02-24T23:56:04.945Z,3.60
